Atwell, West Virginia
Current Conditions -  °F | °C
As of 3:35 AM on Wednesday 26 Nov 2014 (Local Time) from KJFZ Reporting Station
Overcast Overcast  
Wind Chill: 38°   Ceiling: 4600
Heat Index: 42°   Visibility: 10mi
Dew Point: 29°   Wind: 8mph
Humidity: 59%   Direction: 120°ESE
Pressure: 29.96"   Gusts: NA
Location:  37.3433°N, 81.7826°W
Report Text: KJFZ 260835Z AUTO 12007KT 10SM OVC046 06/M02 A2996 RMK AO2 T00581016
Loading
Personal Weather Stations






























Interactive Weather Map New forecast layout! Learn more

10-Day Weather Forecast

Advertisements
Track Severe Weather on mobile